Time;durP1;ratioP1;P1;durP2;ratioP2;P2;SDS_P1;SDS_P2;PMS_P1;PMS_P2;Temp;Humidity;BMP_temperature;BMP_pressure;BME280_temperature;BME280_humidity;BME280_pressure;Samples;Min_cycle;Max_cycle;Signal;HPM_P1;HPM_P2
2022/07/24 00:02:12;;;;;;;6.60;4.30;;;16.60;99.90;;;;;;4970115;28;20050;-80
2022/07/24 00:04:38;;;;;;;6.70;4.32;;;16.60;99.90;;;;;;4980044;28;20046;-81
2022/07/24 00:07:04;;;;;;;6.18;4.60;;;16.60;99.90;;;;;;4990182;28;20062;-80
2022/07/24 00:09:30;;;;;;;4.72;4.07;;;16.50;99.90;;;;;;4999962;28;20107;-80
2022/07/24 00:11:56;;;;;;;5.68;4.53;;;16.50;99.90;;;;;;4967120;28;20129;-82
2022/07/24 00:14:22;;;;;;;5.68;4.50;;;16.50;99.90;;;;;;4984724;28;20046;-80
2022/07/24 00:16:48;;;;;;;7.50;4.38;;;16.50;99.90;;;;;;4967471;28;20054;-80
2022/07/24 00:19:13;;;;;;;5.25;4.63;;;16.50;99.90;;;;;;4967100;28;20053;-80
2022/07/24 00:21:39;;;;;;;4.65;4.10;;;16.50;99.90;;;;;;4955459;28;20503;-80
2022/07/24 00:24:05;;;;;;;5.88;4.63;;;16.50;99.90;;;;;;4980354;28;22057;-80
2022/07/24 00:26:31;;;;;;;4.75;4.25;;;16.50;99.90;;;;;;4987131;28;20121;-83
2022/07/24 00:28:57;;;;;;;5.68;4.63;;;16.40;99.90;;;;;;4981491;28;20140;-80
2022/07/24 00:31:23;;;;;;;6.90;4.47;;;16.50;99.90;;;;;;4972010;28;20137;-80
2022/07/24 00:33:48;;;;;;;7.20;5.05;;;16.40;99.90;;;;;;4997734;28;20038;-80
2022/07/24 00:36:15;;;;;;;6.05;4.70;;;16.40;99.90;;;;;;4982264;28;20117;-81
2022/07/24 00:38:41;;;;;;;6.05;4.93;;;16.40;99.90;;;;;;4980771;28;20078;-80
2022/07/24 00:41:07;;;;;;;6.32;4.88;;;16.40;99.90;;;;;;4970396;28;20084;-80
2022/07/24 00:43:33;;;;;;;5.93;4.88;;;16.40;99.90;;;;;;4984178;28;20161;-80
2022/07/24 00:45:58;;;;;;;5.68;5.03;;;16.30;99.90;;;;;;4988918;28;20731;-82
2022/07/24 00:48:24;;;;;;;5.63;4.53;;;16.30;99.90;;;;;;4971609;28;20053;-81
2022/07/24 00:50:50;;;;;;;6.60;5.25;;;16.30;99.90;;;;;;4966003;28;20121;-80
2022/07/24 00:53:16;;;;;;;6.13;5.18;;;16.30;99.90;;;;;;4987162;28;20050;-81
2022/07/24 00:55:42;;;;;;;5.55;4.88;;;16.30;99.90;;;;;;4980251;28;20053;-81
2022/07/24 00:58:08;;;;;;;5.72;5.15;;;16.30;99.90;;;;;;4980840;28;20037;-80
2022/07/24 01:00:34;;;;;;;5.70;4.90;;;16.30;99.90;;;;;;4980185;28;20042;-81
2022/07/24 01:03:00;;;;;;;6.13;4.72;;;16.30;99.90;;;;;;4967588;28;20047;-80
2022/07/24 01:05:26;;;;;;;6.63;4.78;;;16.30;99.90;;;;;;4984865;28;20062;-80
2022/07/24 01:07:51;;;;;;;5.00;4.50;;;16.30;99.90;;;;;;4972505;28;20067;-81
2022/07/24 01:10:17;;;;;;;5.30;4.57;;;16.20;99.90;;;;;;4998375;28;20041;-81
2022/07/24 01:12:43;;;;;;;6.70;5.03;;;16.20;99.90;;;;;;4952679;28;20084;-81
2022/07/24 01:15:10;;;;;;;6.38;5.05;;;16.20;99.90;;;;;;4968649;28;20045;-80
2022/07/24 01:17:39;;;;;;;5.97;5.32;;;16.20;99.90;;;;;;4999291;28;20139;-80
2022/07/24 01:20:06;;;;;;;6.65;5.75;;;16.20;99.90;;;;;;4974640;28;20041;-81
2022/07/24 01:22:32;;;;;;;9.70;7.10;;;16.20;99.90;;;;;;4985535;28;20056;-80
2022/07/24 01:24:58;;;;;;;7.85;5.90;;;16.20;99.90;;;;;;4999128;28;20041;-80
2022/07/24 01:27:24;;;;;;;7.57;6.32;;;16.10;99.90;;;;;;4983686;28;20634;-80
2022/07/24 01:29:51;;;;;;;8.75;6.57;;;16.10;99.90;;;;;;4984177;28;20041;-81
2022/07/24 01:32:17;;;;;;;6.57;5.88;;;16.10;99.90;;;;;;4968642;28;20054;-81
2022/07/24 01:34:43;;;;;;;7.38;6.22;;;16.20;99.90;;;;;;4998600;28;20056;-81
2022/07/24 01:37:09;;;;;;;6.82;5.97;;;16.20;99.90;;;;;;4984279;28;20050;-81
2022/07/24 01:39:34;;;;;;;7.90;5.50;;;16.20;99.90;;;;;;4983724;28;20041;-81
2022/07/24 01:42:00;;;;;;;7.07;5.00;;;16.20;99.90;;;;;;4990104;28;20045;-80
2022/07/24 01:44:26;;;;;;;7.38;5.50;;;16.20;99.90;;;;;;4999031;28;20054;-79
2022/07/24 01:46:52;;;;;;;6.50;5.65;;;16.20;99.90;;;;;;4966893;28;20128;-80
2022/07/24 01:49:18;;;;;;;6.82;5.22;;;16.20;99.90;;;;;;4968746;28;20049;-81
2022/07/24 01:51:44;;;;;;;6.35;5.50;;;16.30;99.90;;;;;;4988475;28;20045;-81
2022/07/24 01:54:10;;;;;;;7.88;5.35;;;16.30;99.90;;;;;;4973721;28;20062;-80
2022/07/24 01:56:35;;;;;;;6.40;5.28;;;16.30;99.90;;;;;;4982647;28;20073;-80
2022/07/24 01:59:01;;;;;;;7.05;5.75;;;16.30;99.90;;;;;;4988708;28;20147;-80
2022/07/24 02:01:29;;;;;;;6.93;5.40;;;16.30;99.90;;;;;;4999659;28;20467;-80
2022/07/24 02:03:55;;;;;;;7.15;5.60;;;16.30;99.90;;;;;;4996829;28;20124;-81
2022/07/24 02:06:20;;;;;;;6.05;5.45;;;16.40;99.90;;;;;;4999074;28;20459;-80
2022/07/24 02:08:46;;;;;;;6.30;5.05;;;16.40;99.90;;;;;;4970628;28;20061;-81
2022/07/24 02:11:12;;;;;;;6.45;5.40;;;16.40;99.90;;;;;;4980833;28;20076;-81
2022/07/24 02:13:38;;;;;;;6.78;5.28;;;16.40;99.90;;;;;;4999127;28;20503;-81
2022/07/24 02:16:04;;;;;;;8.13;5.95;;;16.40;99.90;;;;;;4967522;28;20134;-81
2022/07/24 02:18:29;;;;;;;6.25;5.65;;;16.30;99.90;;;;;;4966256;28;20049;-81
2022/07/24 02:20:55;;;;;;;7.88;5.95;;;16.40;99.90;;;;;;4966455;28;20971;-81
2022/07/24 02:23:21;;;;;;;9.65;5.93;;;16.40;99.90;;;;;;4971972;28;20099;-81
2022/07/24 02:25:48;;;;;;;7.15;5.28;;;16.40;99.90;;;;;;4997652;28;20042;-81
2022/07/24 02:28:15;;;;;;;6.20;5.38;;;16.40;99.90;;;;;;5003810;28;20064;-81
2022/07/24 02:30:41;;;;;;;7.10;5.18;;;16.40;99.90;;;;;;4998186;28;20556;-81
2022/07/24 02:33:07;;;;;;;6.35;5.75;;;16.40;99.90;;;;;;4981436;28;20038;-81
2022/07/24 02:35:34;;;;;;;7.55;5.85;;;16.40;99.90;;;;;;4983994;28;20092;-80
2022/07/24 02:38:00;;;;;;;9.90;6.55;;;16.40;99.90;;;;;;4983068;28;20053;-81
2022/07/24 02:40:26;;;;;;;8.07;5.50;;;16.40;99.90;;;;;;4981664;28;20086;-81
2022/07/24 02:42:52;;;;;;;7.85;5.53;;;16.50;99.90;;;;;;4998096;28;20046;-81
2022/07/24 02:45:18;;;;;;;7.75;6.10;;;16.40;99.90;;;;;;4998425;28;20053;-80
2022/07/24 02:47:53;;;;;;;6.68;5.70;;;16.40;99.90;;;;;;4966963;28;20046;-80
2022/07/24 02:50:21;;;;;;;6.60;5.93;;;16.50;99.90;;;;;;4983045;28;20046;-80
2022/07/24 02:52:47;;;;;;;8.70;6.40;;;16.50;99.90;;;;;;4986264;28;20077;-81
2022/07/24 02:55:13;;;;;;;6.97;5.72;;;16.50;99.90;;;;;;5001422;28;20045;-80
2022/07/24 02:57:39;;;;;;;8.63;5.60;;;16.50;99.90;;;;;;4972646;28;20590;-81
2022/07/24 03:00:07;;;;;;;8.45;5.50;;;16.50;99.90;;;;;;4973789;28;20088;-81
2022/07/24 03:02:34;;;;;;;7.15;5.93;;;16.50;99.90;;;;;;4987453;28;20100;-80
2022/07/24 03:05:00;;;;;;;7.22;5.80;;;16.50;99.90;;;;;;4987269;28;20522;-80
2022/07/24 03:07:26;;;;;;;7.75;5.82;;;16.00;99.90;;;;;;4997686;28;20062;-80
2022/07/24 03:09:52;;;;;;;7.45;6.47;;;16.50;99.90;;;;;;4988299;28;20057;-81
2022/07/24 03:12:18;;;;;;;7.55;5.47;;;16.50;99.90;;;;;;5001916;28;20052;-80
2022/07/24 03:14:44;;;;;;;8.63;5.50;;;16.50;99.90;;;;;;4987456;28;20111;-80
2022/07/24 03:17:09;;;;;;;8.20;5.60;;;16.50;99.90;;;;;;4980443;28;20050;-81
2022/07/24 03:19:35;;;;;;;8.88;5.80;;;16.50;99.90;;;;;;4956300;28;20451;-81
2022/07/24 03:22:01;;;;;;;7.97;6.18;;;16.50;99.90;;;;;;4982409;28;20076;-81
2022/07/24 03:24:27;;;;;;;6.53;5.70;;;16.50;99.90;;;;;;4966943;28;20128;-80
2022/07/24 03:26:52;;;;;;;8.65;6.43;;;16.50;99.90;;;;;;4965695;28;20794;-81
2022/07/24 03:29:18;;;;;;;8.00;6.40;;;16.50;99.90;;;;;;4987335;28;20071;-80
2022/07/24 03:31:44;;;;;;;9.13;7.22;;;16.50;99.90;;;;;;4987792;28;20136;-81
2022/07/24 03:34:09;;;;;;;9.52;6.78;;;16.60;99.90;;;;;;4980580;28;20638;-80
2022/07/24 03:36:35;;;;;;;7.53;6.80;;;16.50;99.90;;;;;;4988591;28;20045;-80
2022/07/24 03:39:01;;;;;;;10.52;7.70;;;16.50;99.90;;;;;;4997182;28;20342;-81
2022/07/24 03:41:27;;;;;;;8.65;7.53;;;16.50;99.90;;;;;;4981706;28;20042;-81
2022/07/24 03:43:53;;;;;;;9.80;7.53;;;16.50;99.90;;;;;;4980693;28;20056;-81
2022/07/24 03:46:18;;;;;;;10.93;7.15;;;16.50;99.90;;;;;;4981792;28;20104;-81
2022/07/24 03:48:44;;;;;;;8.88;6.90;;;16.50;99.90;;;;;;4965229;28;20042;-81
2022/07/24 03:51:10;;;;;;;10.20;6.40;;;16.50;99.90;;;;;;4981131;28;20054;-81
2022/07/24 03:53:36;;;;;;;9.98;8.20;;;16.50;99.90;;;;;;4966860;28;20130;-81
2022/07/24 03:56:06;;;;;;;11.88;8.23;;;16.50;99.90;;;;;;4982206;28;20123;-80
2022/07/24 03:58:32;;;;;;;11.20;7.95;;;16.50;99.90;;;;;;4987347;28;20052;-81
2022/07/24 04:00:58;;;;;;;10.52;8.68;;;16.50;99.90;;;;;;4987416;28;20060;-81
2022/07/24 04:03:23;;;;;;;8.70;7.80;;;16.50;99.90;;;;;;4982550;28;20049;-81
2022/07/24 04:05:49;;;;;;;10.70;8.63;;;16.50;99.90;;;;;;4989219;28;20509;-80
2022/07/24 04:08:15;;;;;;;11.23;8.48;;;16.50;99.90;;;;;;4953952;28;20083;-80
2022/07/24 04:10:41;;;;;;;9.65;8.55;;;16.50;99.90;;;;;;4964866;28;20128;-80
2022/07/24 04:13:06;;;;;;;12.07;9.85;;;16.50;99.90;;;;;;4948993;28;20511;-80
2022/07/24 04:15:32;;;;;;;12.50;10.75;;;16.50;99.90;;;;;;4996468;28;20044;-80
2022/07/24 04:17:58;;;;;;;12.07;10.77;;;16.50;99.90;;;;;;4969301;28;20304;-81
2022/07/24 04:20:24;;;;;;;12.75;10.18;;;16.60;99.90;;;;;;4971493;28;20053;-80
2022/07/24 04:22:50;;;;;;;12.75;11.40;;;16.60;99.90;;;;;;4987215;28;20049;-81
2022/07/24 04:25:16;;;;;;;13.57;10.65;;;16.60;99.90;;;;;;4987599;28;20052;-81
2022/07/24 04:27:43;;;;;;;12.48;11.15;;;16.60;99.90;;;;;;4981500;28;20042;-81
2022/07/24 04:30:10;;;;;;;13.40;12.00;;;16.60;99.90;;;;;;4965783;28;20053;-84
2022/07/24 04:32:37;;;;;;;12.52;11.02;;;16.60;99.90;;;;;;4987580;28;20046;-83
2022/07/24 04:35:04;;;;;;;13.40;10.93;;;16.60;99.90;;;;;;4977789;28;20045;-83
2022/07/24 04:37:29;;;;;;;15.35;12.10;;;16.60;99.90;;;;;;4971034;28;20057;-83
2022/07/24 04:39:55;;;;;;;12.52;11.23;;;16.60;99.90;;;;;;4957471;28;20042;-81
2022/07/24 04:42:21;;;;;;;14.27;12.13;;;16.60;99.90;;;;;;4984355;28;20124;-81
2022/07/24 04:44:47;;;;;;;13.68;12.10;;;16.60;99.90;;;;;;5000996;28;20051;-81
2022/07/24 04:47:12;;;;;;;16.67;12.65;;;16.70;99.90;;;;;;4951666;28;20107;-84
2022/07/24 04:49:38;;;;;;;14.07;12.50;;;16.70;99.90;;;;;;4982739;28;20049;-84
2022/07/24 04:52:04;;;;;;;14.13;12.27;;;16.70;99.90;;;;;;4984828;28;20103;-84
2022/07/24 04:54:30;;;;;;;14.73;12.85;;;16.80;99.90;;;;;;4967494;28;20072;-84
2022/07/24 04:56:56;;;;;;;16.35;12.77;;;16.90;99.90;;;;;;4972082;28;20042;-84
2022/07/24 04:59:21;;;;;;;14.95;13.32;;;16.90;99.90;;;;;;4951918;28;20047;-82
2022/07/24 05:01:47;;;;;;;14.07;12.20;;;16.90;99.90;;;;;;4997856;28;20144;-81
2022/07/24 05:04:13;;;;;;;13.57;12.18;;;17.00;99.90;;;;;;4998903;28;20059;-83
2022/07/24 05:06:39;;;;;;;15.80;13.75;;;17.00;99.90;;;;;;4949414;28;20109;-83
2022/07/24 05:09:05;;;;;;;16.45;14.75;;;17.10;99.90;;;;;;4994977;28;20049;-83
2022/07/24 05:11:31;;;;;;;16.67;11.70;;;17.20;99.90;;;;;;4986049;28;20103;-82
2022/07/24 05:13:56;;;;;;;16.02;14.32;;;17.40;99.90;;;;;;4978802;28;20046;-84
2022/07/24 05:16:22;;;;;;;16.33;13.27;;;17.40;99.90;;;;;;4951030;28;20050;-85
2022/07/24 05:18:48;;;;;;;16.35;13.45;;;17.50;99.90;;;;;;4991864;28;20038;-84
2022/07/24 05:21:16;;;;;;;16.00;14.30;;;17.60;99.90;;;;;;4970522;28;20085;-83
2022/07/24 05:23:43;;;;;;;18.30;15.38;;;17.70;99.90;;;;;;4970358;28;20049;-84
2022/07/24 05:26:09;;;;;;;14.27;12.65;;;17.80;99.90;;;;;;4982766;28;20139;-84
2022/07/24 05:28:35;;;;;;;13.77;12.00;;;17.80;99.90;;;;;;4982032;28;20472;-86
2022/07/24 05:31:00;;;;;;;14.32;10.75;;;17.90;99.90;;;;;;4953082;28;20054;-87
2022/07/24 05:33:26;;;;;;;13.13;11.57;;;18.00;99.90;;;;;;4964899;28;20049;-85
2022/07/24 05:35:52;;;;;;;14.45;10.75;;;18.00;99.90;;;;;;4948711;28;20056;-86
2022/07/24 05:38:18;;;;;;;13.60;11.45;;;18.10;99.90;;;;;;4966438;28;20148;-88
2022/07/24 05:40:44;;;;;;;11.93;10.25;;;18.10;99.90;;;;;;4985563;28;20141;-86
2022/07/24 05:43:09;;;;;;;14.73;10.02;;;17.90;99.90;;;;;;4968531;28;20065;-86
2022/07/24 05:45:35;;;;;;;9.98;8.43;;;18.30;99.90;;;;;;4985229;28;20060;-86
2022/07/24 05:48:01;;;;;;;7.40;6.05;;;18.50;99.90;;;;;;4983599;28;20042;-87
2022/07/24 05:50:27;;;;;;;8.55;5.03;;;18.60;99.90;;;;;;4988360;28;20056;-89
2022/07/24 05:52:52;;;;;;;6.80;4.40;;;18.80;99.90;;;;;;4994911;28;20514;-89
2022/07/24 05:55:18;;;;;;;7.25;5.15;;;19.00;99.90;;;;;;4973053;28;20050;-87
2022/07/24 05:57:45;;;;;;;6.90;4.45;;;19.20;99.90;;;;;;4973640;28;20046;-86
2022/07/24 06:00:12;;;;;;;8.73;4.78;;;19.40;99.90;;;;;;4989413;28;20077;-86
2022/07/24 06:02:38;;;;;;;6.50;4.40;;;19.60;99.90;;;;;;4952727;28;20042;-87
2022/07/24 06:05:04;;;;;;;7.45;4.00;;;19.70;99.90;;;;;;4972741;28;20053;-86
2022/07/24 06:07:30;;;;;;;9.52;4.25;;;19.90;99.90;;;;;;4972290;28;20515;-85
2022/07/24 06:09:56;;;;;;;8.10;4.20;;;19.90;99.90;;;;;;4985552;28;20065;-87
2022/07/24 06:12:22;;;;;;;6.60;3.70;;;20.00;99.90;;;;;;4986907;28;20053;-86
2022/07/24 06:14:47;;;;;;;6.85;3.53;;;20.00;99.90;;;;;;4991970;28;20054;-86
2022/07/24 06:17:21;;;;;;;6.90;3.92;;;20.10;99.90;;;;;;4993696;28;20089;-88
2022/07/24 06:19:46;;;;;;;5.82;3.65;;;20.20;99.90;;;;;;4977222;28;20483;-90
2022/07/24 06:22:18;;;;;;;9.07;3.42;;;20.30;99.90;;;;;;4991239;28;20108;-89
2022/07/24 06:24:43;;;;;;;5.60;3.45;;;20.50;99.90;;;;;;4976253;28;20507;-85
2022/07/24 06:27:09;;;;;;;7.53;3.80;;;20.60;99.90;;;;;;4952081;28;20081;-87
2022/07/24 06:29:35;;;;;;;5.13;3.15;;;20.70;99.90;;;;;;4987786;28;20042;-88
2022/07/24 06:32:01;;;;;;;5.57;2.63;;;20.80;99.90;;;;;;4996391;28;20046;-84
2022/07/24 06:34:27;;;;;;;6.63;2.90;;;20.80;99.90;;;;;;5001148;28;20050;-91
2022/07/24 06:36:53;;;;;;;7.75;2.90;;;20.90;99.90;;;;;;4987476;28;20046;-86
2022/07/24 06:39:21;;;;;;;3.85;2.85;;;20.90;99.90;;;;;;4997996;28;20076;-92
2022/07/24 06:41:55;;;;;;;6.30;2.80;;;20.90;99.90;;;;;;4987950;28;20093;-92
2022/07/24 06:44:52;;;;;;;5.72;3.00;;;20.90;99.90;;;;;;5011815;28;20036;-91
2022/07/24 06:47:25;;;;;;;3.97;2.75;;;20.90;99.90;;;;;;4961571;28;20057;-88
2022/07/24 06:49:52;;;;;;;4.53;2.97;;;20.90;99.90;;;;;;4991258;28;20054;-87
2022/07/24 06:52:23;;;;;;;5.10;3.15;;;21.00;99.90;;;;;;4987221;28;20820;-88
2022/07/24 06:54:49;;;;;;;4.97;3.13;;;20.90;99.90;;;;;;4983822;28;20100;-89
2022/07/24 06:57:20;;;;;;;5.55;2.92;;;21.00;99.90;;;;;;4971710;28;20492;-90
2022/07/24 06:59:45;;;;;;;3.92;2.90;;;21.00;99.90;;;;;;4984209;28;20104;-85
2022/07/24 07:02:14;;;;;;;5.55;2.90;;;21.10;99.90;;;;;;4987953;28;20492;-86
2022/07/24 07:04:40;;;;;;;5.43;3.00;;;21.10;99.90;;;;;;4984236;28;20119;-90
2022/07/24 07:07:06;;;;;;;3.97;2.45;;;21.10;99.90;;;;;;4983153;28;20151;-84
2022/07/24 07:09:32;;;;;;;4.47;2.80;;;21.20;99.90;;;;;;4969582;28;20041;-85
2022/07/24 07:11:58;;;;;;;3.42;2.45;;;21.20;99.90;;;;;;4974202;28;20046;-86
2022/07/24 07:14:33;;;;;;;4.70;2.35;;;21.10;99.90;;;;;;4969546;28;20089;-90
2022/07/24 07:16:58;;;;;;;3.28;2.22;;;21.10;99.90;;;;;;4992218;28;20050;-85
2022/07/24 07:19:24;;;;;;;4.40;2.13;;;21.10;99.90;;;;;;4973380;28;20054;-86
2022/07/24 07:21:50;;;;;;;5.28;2.20;;;21.10;99.90;;;;;;4988390;28;20420;-89
2022/07/24 07:24:16;;;;;;;4.88;2.20;;;21.10;99.90;;;;;;4980634;28;20105;-87
2022/07/24 07:26:42;;;;;;;4.10;2.05;;;21.10;99.90;;;;;;4986232;28;20076;-87
2022/07/24 07:29:08;;;;;;;4.40;2.20;;;21.20;99.90;;;;;;4979742;28;20050;-87
2022/07/24 07:31:34;;;;;;;4.80;2.20;;;20.80;99.90;;;;;;4964486;28;20085;-88
2022/07/24 07:33:59;;;;;;;2.88;1.90;;;21.30;99.90;;;;;;4980139;28;20128;-86
2022/07/24 07:36:25;;;;;;;4.50;2.45;;;21.50;99.90;;;;;;4986977;28;20042;-88
2022/07/24 07:38:57;;;;;;;4.28;2.25;;;21.80;99.90;;;;;;4983143;28;20034;-88
2022/07/24 07:41:24;;;;;;;4.05;1.80;;;21.40;99.90;;;;;;4998993;28;20125;-89
2022/07/24 07:43:50;;;;;;;5.18;2.13;;;22.30;99.90;;;;;;4991638;28;20073;-86
2022/07/24 07:46:16;;;;;;;5.18;2.15;;;22.50;99.90;;;;;;4996970;28;20050;-90
2022/07/24 07:48:42;;;;;;;3.13;1.90;;;22.60;99.90;;;;;;4986704;28;20372;-88
2022/07/24 07:51:08;;;;;;;4.60;2.10;;;22.70;99.90;;;;;;4986938;28;20054;-90
2022/07/24 07:53:34;;;;;;;4.57;2.33;;;22.60;99.90;;;;;;4995332;28;20069;-92
2022/07/24 07:56:04;;;;;;;5.40;2.13;;;22.50;99.90;;;;;;4992006;28;20053;-90
2022/07/24 07:58:30;;;;;;;4.40;2.40;;;22.60;99.90;;;;;;4984933;28;20498;-90
2022/07/24 08:00:56;;;;;;;5.03;2.42;;;22.50;99.90;;;;;;4982253;28;20112;-89
2022/07/24 08:03:22;;;;;;;4.55;2.17;;;22.70;99.90;;;;;;4961452;28;20797;-88
2022/07/24 08:05:48;;;;;;;4.75;2.03;;;22.90;99.90;;;;;;4981900;28;20073;-80
2022/07/24 08:08:14;;;;;;;4.40;2.10;;;23.00;99.90;;;;;;4991851;28;20061;-82
2022/07/24 08:10:39;;;;;;;5.72;2.40;;;23.20;99.90;;;;;;4986521;28;20065;-81
2022/07/24 08:13:07;;;;;;;3.65;2.15;;;23.30;99.90;;;;;;4995148;28;20394;-86
2022/07/24 08:15:33;;;;;;;3.83;1.98;;;23.50;99.90;;;;;;4974120;28;20357;-85
2022/07/24 08:17:59;;;;;;;4.30;1.98;;;23.60;99.90;;;;;;4995746;28;20192;-81
2022/07/24 08:20:26;;;;;;;5.80;2.28;;;23.70;99.90;;;;;;4973835;28;20076;-89
2022/07/24 08:22:52;;;;;;;3.05;1.80;;;23.90;99.90;;;;;;4988991;28;20049;-75
2022/07/24 08:25:22;;;;;;;5.43;1.98;;;23.90;99.90;;;;;;4970139;28;20057;-87
2022/07/24 08:27:48;;;;;;;4.88;2.00;;;23.90;99.90;;;;;;4991405;28;20053;-82
2022/07/24 08:30:14;;;;;;;3.92;1.90;;;24.00;99.90;;;;;;4969923;28;20183;-82
2022/07/24 08:32:40;;;;;;;5.07;1.77;;;24.20;99.90;;;;;;5001868;28;20076;-84
2022/07/24 08:35:07;;;;;;;3.45;1.92;;;24.30;99.90;;;;;;4991343;28;20095;-82
2022/07/24 08:37:40;;;;;;;2.78;1.83;;;24.40;99.90;;;;;;4983832;28;20475;-82
2022/07/24 08:40:07;;;;;;;3.42;1.98;;;24.40;99.90;;;;;;4974616;28;20046;-81
2022/07/24 08:42:34;;;;;;;3.92;2.10;;;24.60;99.90;;;;;;5015817;28;20050;-82
2022/07/24 08:44:59;;;;;;;4.80;1.92;;;24.70;99.90;;;;;;4986350;28;20045;-82
2022/07/24 08:47:27;;;;;;;2.63;1.80;;;24.90;99.90;;;;;;4975434;28;20120;-82
2022/07/24 08:49:55;;;;;;;4.35;2.00;;;25.00;99.90;;;;;;5002773;28;20050;-82
2022/07/24 08:52:24;;;;;;;5.35;1.70;;;25.20;99.90;;;;;;4984907;28;20103;-82
2022/07/24 08:54:51;;;;;;;5.35;1.90;;;25.30;99.90;;;;;;4969871;28;20080;-82
2022/07/24 08:57:17;;;;;;;4.30;2.00;;;25.40;99.90;;;;;;5001942;28;20124;-83
2022/07/24 08:59:42;;;;;;;4.40;1.73;;;25.60;99.90;;;;;;4985378;28;20050;-83
2022/07/24 09:02:08;;;;;;;3.15;1.50;;;25.80;99.90;;;;;;4976189;28;20049;-82
2022/07/24 09:04:41;;;;;;;3.50;1.88;;;25.90;99.90;;;;;;4993942;28;20077;-83
2022/07/24 09:07:09;;;;;;;4.28;1.67;;;25.70;99.90;;;;;;4985003;28;20054;-83
2022/07/24 09:09:37;;;;;;;4.15;2.05;;;25.60;99.90;;;;;;5012869;28;20045;-82
2022/07/24 09:12:07;;;;;;;3.83;1.80;;;25.50;99.90;;;;;;5004813;28;20055;-83
2022/07/24 09:14:34;;;;;;;3.92;1.60;;;25.40;99.90;;;;;;4992880;28;20042;-83
2022/07/24 09:17:15;;;;;;;3.75;2.03;;;25.30;99.90;;;;;;4989099;28;20048;-82
2022/07/24 09:19:56;;;;;;;3.50;2.00;;;25.20;99.90;;;;;;5015718;28;20049;-82
2022/07/24 09:22:33;;;;;;;3.42;1.80;;;25.40;99.90;;;;;;4995647;28;20046;-82
2022/07/24 09:25:17;;;;;;;4.32;1.60;;;25.70;99.90;;;;;;5018348;28;20046;-83
2022/07/24 09:27:51;;;;;;;3.50;1.75;;;25.80;99.90;;;;;;4994778;28;20567;-82
2022/07/24 09:30:36;;;;;;;4.00;1.65;;;25.70;99.90;;;;;;5019922;28;20060;-82
2022/07/24 09:33:18;;;;;;;3.43;1.80;;;25.50;99.90;;;;;;5006840;28;20084;-83
2022/07/24 09:35:48;;;;;;;3.15;1.80;;;25.40;99.90;;;;;;4998098;28;20064;-82
2022/07/24 09:38:20;;;;;;;4.55;1.60;;;25.10;99.90;;;;;;4988837;28;20056;-81
2022/07/24 09:40:50;;;;;;;4.05;2.08;;;24.90;99.90;;;;;;4999423;28;20064;-83
2022/07/24 09:43:20;;;;;;;3.55;1.70;;;24.80;99.90;;;;;;4998363;28;20534;-82
2022/07/24 09:45:55;;;;;;;5.03;1.90;;;24.70;99.90;;;;;;4983593;28;20045;-82
2022/07/24 09:48:23;;;;;;;2.60;1.40;;;24.50;99.90;;;;;;5000920;28;20136;-83
2022/07/24 09:50:54;;;;;;;5.07;1.70;;;24.50;99.90;;;;;;4985169;28;20339;-83
2022/07/24 09:53:23;;;;;;;2.70;1.42;;;24.50;99.90;;;;;;4969409;28;20045;-83
2022/07/24 09:55:59;;;;;;;4.55;1.73;;;24.40;99.90;;;;;;4989623;28;20064;-83
2022/07/24 09:58:25;;;;;;;4.85;2.38;;;24.70;99.90;;;;;;5017636;28;20048;-82
2022/07/24 10:00:57;;;;;;;4.20;1.70;;;25.10;99.90;;;;;;4998413;28;20495;-83
2022/07/24 10:03:29;;;;;;;3.78;1.70;;;25.40;99.90;;;;;;5006992;28;20046;-83
2022/07/24 10:05:58;;;;;;;4.13;2.22;;;25.50;99.90;;;;;;4998671;28;20080;-84
2022/07/24 10:08:25;;;;;;;2.88;1.90;;;25.70;99.90;;;;;;5002913;28;20057;-83
2022/07/24 10:10:51;;;;;;;3.67;1.75;;;25.90;99.90;;;;;;4999228;28;20045;-83
2022/07/24 10:13:17;;;;;;;4.05;1.65;;;26.00;99.90;;;;;;4985435;28;20062;-82
2022/07/24 10:16:00;;;;;;;5.25;1.77;;;26.00;99.90;;;;;;5001851;28;20053;-82
2022/07/24 10:18:45;;;;;;;3.03;1.70;;;25.90;99.90;;;;;;4995755;28;20056;-84
2022/07/24 10:21:19;;;;;;;5.50;1.80;;;25.90;99.90;;;;;;4996042;28;20045;-83
2022/07/24 10:24:01;;;;;;;3.53;1.67;;;25.70;99.90;;;;;;4987375;28;20068;-82
2022/07/24 10:26:36;;;;;;;3.78;1.80;;;25.60;99.90;;;;;;4984260;28;20227;-81
2022/07/24 10:29:22;;;;;;;3.42;1.52;;;25.70;99.90;;;;;;4987439;28;20056;-81
2022/07/24 10:31:51;;;;;;;6.60;2.00;;;25.60;99.90;;;;;;4981281;28;20450;-81
2022/07/24 10:34:46;;;;;;;3.00;1.55;;;25.70;99.90;;;;;;4998349;28;20049;-81
2022/07/24 10:37:21;;;;;;;3.47;1.75;;;26.00;99.90;;;;;;4998679;28;20060;-81
2022/07/24 10:39:52;;;;;;;3.85;1.73;;;26.40;99.90;;;;;;4988043;28;20042;-88
2022/07/24 10:42:24;;;;;;;3.60;1.63;;;26.80;99.90;;;;;;4998126;28;20053;-80
2022/07/24 10:45:13;;;;;;;4.05;1.70;;;27.00;99.90;;;;;;4973419;28;20393;-81
2022/07/24 10:47:39;;;;;;;2.15;1.30;;;27.30;99.90;;;;;;4998216;28;20049;-81
2022/07/24 10:50:05;;;;;;;3.85;1.80;;;27.40;99.90;;;;;;4983886;28;20046;-81
2022/07/24 10:52:33;;;;;;;2.83;1.60;;;27.70;99.90;;;;;;4985552;28;20037;-85
2022/07/24 10:55:30;;;;;;;2.45;1.33;;;27.90;99.90;;;;;;4987294;28;20045;-82
2022/07/24 10:57:59;;;;;;;6.18;1.55;;;28.20;99.90;;;;;;4998022;28;20072;-85
2022/07/24 11:00:35;;;;;;;3.35;1.42;;;28.40;99.90;;;;;;4995088;28;20045;-85
2022/07/24 11:03:07;;;;;;;2.38;1.50;;;28.40;99.90;;;;;;5020914;28;20582;-84
2022/07/24 11:05:38;;;;;;;1.88;1.30;;;28.40;99.90;;;;;;4982868;28;20033;-85
2022/07/24 11:08:16;;;;;;;2.38;1.48;;;28.60;99.90;;;;;;4996351;28;20057;-85
2022/07/24 11:10:49;;;;;;;2.40;1.40;;;28.80;99.60;;;;;;4989610;28;20049;-83
2022/07/24 11:13:34;;;;;;;2.55;1.40;;;29.10;99.70;;;;;;5005647;28;20506;-85
2022/07/24 11:16:15;;;;;;;2.70;1.67;;;29.30;98.40;;;;;;4999188;28;20068;-83
2022/07/24 11:18:50;;;;;;;2.15;1.20;;;29.30;98.40;;;;;;4987757;28;20049;-84
2022/07/24 11:21:29;;;;;;;4.40;1.40;;;29.40;97.90;;;;;;5001011;28;20046;-80
2022/07/24 11:24:13;;;;;;;5.68;1.65;;;29.50;97.60;;;;;;4989258;28;20057;-80
2022/07/24 11:26:40;;;;;;;2.40;1.50;;;29.40;97.70;;;;;;5002752;28;20077;-81
2022/07/24 11:29:17;;;;;;;3.80;1.40;;;29.50;97.90;;;;;;4987914;28;20386;-81
2022/07/24 11:31:46;;;;;;;2.00;1.30;;;29.40;97.30;;;;;;4980706;28;20099;-81
2022/07/24 11:34:12;;;;;;;2.15;1.40;;;29.20;97.60;;;;;;5001328;28;20058;-81
2022/07/24 11:36:45;;;;;;;4.28;1.65;;;29.00;97.60;;;;;;4983487;28;20049;-81
2022/07/24 11:39:11;;;;;;;2.72;1.30;;;29.10;97.50;;;;;;4980880;28;20451;-81
2022/07/24 11:42:00;;;;;;;2.88;1.30;;;29.10;97.60;;;;;;5001259;28;20041;-81
2022/07/24 11:44:29;;;;;;;3.50;1.30;;;29.20;97.40;;;;;;4989181;28;20077;-82
2022/07/24 11:46:57;;;;;;;3.78;1.10;;;29.40;97.30;;;;;;4992832;28;20042;-80
2022/07/24 11:49:24;;;;;;;2.22;1.30;;;29.60;96.70;;;;;;5003227;28;20041;-81
2022/07/24 11:51:52;;;;;;;2.95;1.35;;;29.50;96.60;;;;;;5002857;28;20046;-80
2022/07/24 11:54:25;;;;;;;3.97;1.30;;;29.50;96.50;;;;;;4989067;28;20053;-81
2022/07/24 11:56:55;;;;;;;3.50;1.20;;;29.70;96.80;;;;;;5007148;28;20041;-80
2022/07/24 11:59:26;;;;;;;2.67;1.35;;;29.70;96.10;;;;;;4988675;28;20479;-81
2022/07/24 12:02:04;;;;;;;3.28;1.27;;;29.60;96.20;;;;;;5002955;28;20533;-80
2022/07/24 12:04:30;;;;;;;3.20;1.42;;;29.60;96.00;;;;;;4987128;28;20038;-80
2022/07/24 12:06:56;;;;;;;3.08;1.40;;;29.60;95.90;;;;;;5001131;28;20061;-80
2022/07/24 12:09:22;;;;;;;2.33;1.02;;;29.50;96.10;;;;;;4952053;28;20056;-80
2022/07/24 12:11:48;;;;;;;3.10;1.25;;;29.60;96.30;;;;;;4969880;28;20120;-80
2022/07/24 12:14:15;;;;;;;2.20;1.20;;;29.70;96.30;;;;;;4949479;28;20081;-80
2022/07/24 12:16:41;;;;;;;3.22;1.17;;;29.80;96.40;;;;;;4997987;28;20759;-80
2022/07/24 12:19:17;;;;;;;2.15;1.30;;;29.80;96.50;;;;;;5016144;28;20065;-82
2022/07/24 12:21:44;;;;;;;3.55;1.35;;;29.70;95.70;;;;;;4997580;28;20057;-85
2022/07/24 12:24:10;;;;;;;1.80;1.20;;;29.80;95.90;;;;;;4983397;28;20046;-83
2022/07/24 12:26:57;;;;;;;4.30;1.40;;;29.90;95.80;;;;;;4985875;28;20103;-88
2022/07/24 12:29:25;;;;;;;6.25;1.25;;;29.90;95.30;;;;;;5000031;28;20108;-82
2022/07/24 12:32:17;;;;;;;2.47;1.10;;;30.00;95.30;;;;;;4990758;28;20046;-82
2022/07/24 12:34:47;;;;;;;2.60;1.13;;;30.10;95.70;;;;;;4996438;28;20100;-81
2022/07/24 12:37:21;;;;;;;4.22;1.40;;;30.20;95.50;;;;;;4998732;28;20046;-83
2022/07/24 12:39:49;;;;;;;3.92;1.50;;;30.30;95.30;;;;;;4988254;28;20903;-83
2022/07/24 12:42:15;;;;;;;4.35;1.20;;;30.20;95.40;;;;;;4992322;28;20057;-80
2022/07/24 12:44:45;;;;;;;3.03;1.50;;;30.20;95.30;;;;;;4991780;28;20046;-80
2022/07/24 12:47:12;;;;;;;3.50;1.33;;;30.10;95.00;;;;;;4985495;28;20080;-85
2022/07/24 12:49:42;;;;;;;1.63;1.00;;;30.00;95.30;;;;;;4983658;28;20081;-80